Sixes, OR

3:49 AM PDT on August 22, 2014 (GMT -0700)
Sexton Summit | Change Station
CLOSE
Current Station
Airport
Location: Sexton Summit,
Elevation: 3839 ft
Nearby Weather Stations

Elev 3839 ft 42.60 °N, 123.36 °W | Updated 53 minutes ago

Scattered Clouds
Scattered Clouds
51 °F
Feels Like 51 °F
N
5
Wind Variable Wind from North

Today
High -- | Low -- °F
--% Chance of Precip.
Yesterday
High -- | Low -- °F
Precip. -- in
6:31 AM 8:08 PM
Waning Crescent, 9% visible
Pressure 29.92 in
Visibility 10.0 miles
Clouds Few 800 ft
Scattered Clouds 3800 ft
Dew Point 45 °F
Humidity 80%
Rainfall 0.00 in
Snow Depth Not available.
UV 0 out of 12
Pollen 5.30 out of 12
Air Quality Not available.
Flu Activity Not available.
METAR KSXT 220956Z AUTO 36004KT 10SM FEW008 SCT038 11/07 A3004 RMK AO2 SLP131 T01060072

More Conditions Fewer Conditions

Pressure 29.92 in
Visibility 10.0 miles
Clouds Few 800 ft
Scattered Clouds 3800 ft
Dew Point 45 °F
Humidity 80%
Rainfall 0.00 in
Snow Depth Not available.
UV 0 out of 12
Pollen 5.30 out of 12
Air Quality Not available.
Flu Activity Not available.
METAR KSXT 220956Z AUTO 36004KT 10SM FEW008 SCT038 11/07 A3004 RMK AO2 SLP131 T01060072

More Conditions Fewer Conditions

10-Day Weather Forecast

Almanac

Astronomy

Aug. 22, 2014 Rise Set
Actual Time 6:31 AM PDT 8:08 PM PDT
Civil Twilight 6:01 AM PDT 8:38 PM PDT
Nautical Twilight 5:25 AM PDT 9:14 PM PDT
Astronomical Twilight 4:46 AM PDT 9:53 PM PDT
Moon 3:57 AM PDT 6:21 PM PDT
Length of Visible Light 14h 36m
Length of Day
13h 36m
Tomorrow will be 2m 41s shorter.
Waning Crescent, 9% of the Moon is Illuminated
Today
Waning Crescent
Aug 25
New
Sep 2
First Quarter
Sep 8
Full
Sep 15
Last Quarter

Today's Extremes

State Highs State Lows

Community

WunderPhotos

Upload Photos

1,746,151 photos uploaded!

Nearby

Snow Depth

Station Depth Elevation
Bigelow Camp 0 in 5120 ft
Big Red Mountain 0 in 6250 ft
Fish Lake 0 in 4665 ft
Holland Meadows 0 in 4900 ft
Billie Creek Divide 0 in 5300 ft

Earthquake Activity

City Distance Mag. Time & Date
Crescent City, California 127 miles 2.8 2:15 PM PDT
2014-08-15
Minimum magnitude displayed is 2.5.

Coastal Water Temperatures

Place Temperature
Port Orford, OR 48.9 °F
Crescent City, CA 60.1 °F
Charleston, OR 53.1 °F

Nearby Weather Stations